Time;durP1;ratioP1;P1;durP2;ratioP2;P2;SDS_P1;SDS_P2;PMS_P1;PMS_P2;Temp;Humidity;BMP_temperature;BMP_pressure;BME280_temperature;BME280_humidity;BME280_pressure;Samples;Min_cycle;Max_cycle;Signal;HPM_P1;HPM_P2
2021/12/15 00:02:02;;;;;;;;;;;;;;;;;;5089165;28;19934;-65
2021/12/15 00:04:29;;;;;;;;;;;;;;;;;;5085787;28;19968;-65
2021/12/15 00:06:56;;;;;;;;;;;;;;;;;;5090388;28;20011;-65
2021/12/15 00:09:23;;;;;;;;;;;;;;;;;;5084837;28;19931;-65
2021/12/15 00:11:50;;;;;;;;;;;;;;;;;;5081332;28;20417;-65
2021/12/15 00:14:17;;;;;;;;;;;;;;;;;;5090616;28;19928;-65
2021/12/15 00:16:44;;;;;;;;;;;;;;;;;;5085225;28;20018;-66
2021/12/15 00:19:11;;;;;;;;;;;;;;;;;;5084807;28;19928;-65
2021/12/15 00:21:38;;;;;;;;;;;;;;;;;;5084601;28;19931;-65
2021/12/15 00:24:05;;;;;;;;;;;;;;;;;;5080315;28;19925;-66
2021/12/15 00:26:32;;;;;;;;;;;;;;;;;;5077963;28;19934;-65
2021/12/15 00:28:59;;;;;;;;;;;;;;;;;;5090063;28;20020;-65
2021/12/15 00:31:28;;;;;;;;;;;;;;;;;;5084809;28;19932;-66
2021/12/15 00:33:55;;;;;;;;;;;;;;;;;;5085379;28;19923;-65
2021/12/15 00:36:22;;;;;;;;;;;;;;;;;;5081363;28;19924;-65
2021/12/15 00:38:49;;;;;;;;;;;;;;;;;;5083797;28;19932;-64
2021/12/15 00:41:15;;;;;;;;;;;;;;;;;;5086426;28;19924;-65
2021/12/15 00:43:42;;;;;;;;;;;;;;;;;;5084694;28;19924;-65
2021/12/15 00:46:09;;;;;;;;;;;;;;;;;;5081822;28;19928;-65
2021/12/15 00:48:36;;;;;;;;;;;;;;;;;;5082365;28;20015;-65
2021/12/15 00:51:03;;;;;;;;;;;;;;;;;;5083457;28;20020;-65
2021/12/15 00:53:30;;;;;;;;;;;;;;;;;;5086500;28;19930;-65
2021/12/15 00:55:57;;;;;;;;;;;;;;;;;;5088090;28;19924;-65
2021/12/15 00:58:24;;;;;;;;;;;;;;;;;;5082081;28;19930;-66
2021/12/15 01:00:51;;;;;;;;;;;;;;;;;;5090278;28;19950;-64
2021/12/15 01:03:18;;;;;;;;;;;;;;;;;;5081796;28;19928;-65
2021/12/15 01:05:45;;;;;;;;;;;;;;;;;;5083051;28;20043;-65
2021/12/15 01:08:12;;;;;;;;;;;;;;;;;;5086834;28;19931;-64
2021/12/15 01:21:23;;;;;;;;;;;;;;;;;;5058095;28;20328;-67
2021/12/15 01:23:50;;;;;;;;;;;;;;;;;;5046666;28;20401;-67
2021/12/15 01:26:17;;;;;;;;;;;;;;;;;;5037542;28;19925;-66
2021/12/15 01:28:44;;;;;;;;;;;;;;;;;;5038115;28;19932;-67
2021/12/15 01:31:11;;;;;;;;;;;;;;;;;;5043548;28;19948;-67
2021/12/15 01:33:38;;;;;;;;;;;;;;;;;;5043266;28;19940;-67
2021/12/15 01:36:05;;;;;;;;;;;;;;;;;;5036583;28;19935;-67
2021/12/15 01:38:32;;;;;;;;;;;;;;;;;;5042086;28;19925;-67
2021/12/15 01:40:59;;;;;;;;;;;;;;;;;;5047390;28;20394;-67
2021/12/15 01:43:34;;;;;;;;;;;;;;;;;;5042587;28;21064;-66
2021/12/15 01:48:46;;;;;;;;;;;;;;;;;;5040205;28;20035;-66
2021/12/15 01:51:12;;;;;;;;;;;;;;;;;;5043149;28;20310;-66
2021/12/15 01:53:39;;;;;;;;;;;;;;;;;;5032989;28;19933;-65
2021/12/15 01:56:06;;;;;;;;;;;;;;;;;;5037916;28;19925;-65
2021/12/15 01:58:33;;;;;;;;;;;;;;;;;;5048933;28;19924;-66
2021/12/15 02:01:00;;;;;;;;;;;;;;;;;;5034668;28;19925;-66
2021/12/15 02:03:27;;;;;;;;;;;;;;;;;;5029320;28;20536;-65
2021/12/15 02:05:54;;;;;;;;;;;;;;;;;;5023349;28;19929;-65
2021/12/15 02:08:21;;;;;;;;;;;;;;;;;;5023462;28;19935;-66
2021/12/15 02:10:49;;;;;;;;;;;;;;;;;;5041999;28;19933;-66
2021/12/15 02:13:16;;;;;;;;;;;;;;;;;;5021742;28;19940;-66
2021/12/15 02:15:43;;;;;;;;;;;;;;;;;;5031483;28;19928;-65
2021/12/15 02:18:10;;;;;;;;;;;;;;;;;;5027562;28;21593;-65
2021/12/15 02:20:38;;;;;;;;;;;;;;;;;;5018510;28;20319;-65
2021/12/15 02:23:05;;;;;;;;;;;;;;;;;;5022108;28;19937;-65
2021/12/15 02:25:32;;;;;;;;;;;;;;;;;;5027912;28;19932;-66
2021/12/15 02:28:00;;;;;;;;;;;;;;;;;;5043980;28;19936;-64
2021/12/15 02:30:44;;;;;;;;;;;;;;;;;;5040472;28;20402;-64
2021/12/15 02:33:34;;;;;;;;;;;;;;;;;;5031382;28;19925;-65
2021/12/15 02:38:43;;;;;;;;;;;;;;;;;;5045835;28;19920;-66
2021/12/15 02:41:11;;;;;;;;;;;;;;;;;;5033941;28;19924;-65
2021/12/15 02:43:38;;;;;;;;;;;;;;;;;;5039678;28;19935;-65
2021/12/15 02:46:05;;;;;;;;;;;;;;;;;;5038001;28;19932;-66
2021/12/15 02:48:32;;;;;;;;;;;;;;;;;;5044067;28;19948;-66
2021/12/15 02:50:59;;;;;;;;;;;;;;;;;;5040898;28;19936;-66
2021/12/15 02:53:26;;;;;;;;;;;;;;;;;;5046610;28;19925;-66
2021/12/15 02:55:53;;;;;;;;;;;;;;;;;;5040672;28;19925;-66
2021/12/15 02:58:21;;;;;;;;;;;;;;;;;;5046092;28;19925;-65
2021/12/15 03:00:58;;;;;;;;;;;;;;;;;;5038937;28;19933;-65
2021/12/15 03:03:53;;;;;;;;;;;;;;;;;;5041669;28;19926;-65
2021/12/15 03:06:27;;;;;;;;;;;;;;;;;;5034023;28;19964;-65
2021/12/15 03:09:01;;;;;;;;;;;;;;;;;;5056873;28;19932;-66
2021/12/15 03:16:57;;;;;;;;;;;;;;;;;;5037692;28;19919;-65
2021/12/15 03:19:24;;;;;;;;;;;;;;;;;;5045303;28;19932;-65
2021/12/15 03:21:51;;;;;;;;;;;;;;;;;;5036335;28;19929;-65
2021/12/15 03:24:19;;;;;;;;;;;;;;;;;;5040423;28;19933;-66
2021/12/15 03:26:51;;;;;;;;;;;;;;;;;;5034457;28;20033;-66
2021/12/15 03:35:00;;;;;;;;;;;;;;;;;;5042522;28;19970;-65
2021/12/15 03:37:26;;;;;;;;;;;;;;;;;;5040622;28;19933;-66
2021/12/15 03:39:53;;;;;;;;;;;;;;;;;;5050602;28;19924;-66
2021/12/15 03:42:22;;;;;;;;;;;;;;;;;;5051547;28;19931;-66
2021/12/15 03:44:49;;;;;;;;;;;;;;;;;;5051201;28;19979;-66
2021/12/15 03:47:16;;;;;;;;;;;;;;;;;;5042221;28;19929;-66
2021/12/15 03:49:43;;;;;;;;;;;;;;;;;;5061868;28;19932;-66
2021/12/15 03:52:10;;;;;;;;;;;;;;;;;;5044537;28;19933;-65
2021/12/15 03:54:37;;;;;;;;;;;;;;;;;;5037024;28;19952;-66
2021/12/15 03:57:04;;;;;;;;;;;;;;;;;;5042252;28;19932;-65
2021/12/15 03:59:33;;;;;;;;;;;;;;;;;;5037434;28;19931;-65
2021/12/15 04:02:00;;;;;;;;;;;;;;;;;;5046750;28;19925;-66
2021/12/15 04:04:27;;;;;;;;;;;;;;;;;;5053214;28;19925;-66
2021/12/15 04:06:54;;;;;;;;;;;;;;;;;;5041958;28;19955;-65
2021/12/15 04:09:21;;;;;;;;;;;;;;;;;;5039367;28;19933;-66
2021/12/15 04:11:48;;;;;;;;;;;;;;;;;;5049291;28;19926;-66
2021/12/15 04:14:19;;;;;;;;;;;;;;;;;;5052201;28;19925;-66
2021/12/15 04:16:57;;;;;;;;;;;;;;;;;;5044916;28;20159;-65
2021/12/15 04:19:24;;;;;;;;;;;;;;;;;;5040340;28;19932;-66
2021/12/15 04:21:51;;;;;;;;;;;;;;;;;;5047315;28;19928;-66
2021/12/15 04:24:18;;;;;;;;;;;;;;;;;;5051425;28;20004;-65
2021/12/15 04:26:45;;;;;;;;;;;;;;;;;;5038635;28;19925;-66
2021/12/15 04:29:11;;;;;;;;;;;;;;;;;;5048255;28;19929;-65
2021/12/15 04:31:38;;;;;;;;;;;;;;;;;;5042565;28;19924;-66
2021/12/15 04:34:05;;;;;;;;;;;;;;;;;;5049568;28;19931;-65
2021/12/15 04:36:32;;;;;;;;;;;;;;;;;;5047719;28;19935;-65
2021/12/15 04:38:59;;;;;;;;;;;;;;;;;;5047903;28;19935;-65
2021/12/15 04:41:26;;;;;;;;;;;;;;;;;;5038775;28;20386;-66
2021/12/15 04:43:57;;;;;;;;;;;;;;;;;;5043142;28;20404;-66
2021/12/15 04:46:24;;;;;;;;;;;;;;;;;;5044809;28;19924;-66
2021/12/15 04:48:51;;;;;;;;;;;;;;;;;;5047801;28;19931;-65
2021/12/15 04:51:18;;;;;;;;;;;;;;;;;;5040841;28;21250;-65
2021/12/15 04:53:45;;;;;;;;;;;;;;;;;;5044078;28;19936;-65
2021/12/15 04:56:12;;;;;;;;;;;;;;;;;;5040937;28;19935;-64
2021/12/15 04:58:39;;;;;;;;;;;;;;;;;;5044329;28;19932;-65
2021/12/15 05:01:06;;;;;;;;;;;;;;;;;;5036589;28;20151;-65
2021/12/15 05:03:33;;;;;;;;;;;;;;;;;;5032832;28;20318;-65
2021/12/15 05:06:00;;;;;;;;;;;;;;;;;;5037212;28;20379;-66
2021/12/15 05:08:27;;;;;;;;;;;;;;;;;;5042025;28;20665;-65
2021/12/15 05:10:55;;;;;;;;;;;;;;;;;;5040055;28;19931;-66
2021/12/15 05:13:25;;;;;;;;;;;;;;;;;;5039276;28;20333;-66
2021/12/15 05:15:51;;;;;;;;;;;;;;;;;;5046551;28;19928;-66
2021/12/15 05:18:18;;;;;;;;;;;;;;;;;;5035374;28;19924;-66
2021/12/15 05:20:49;;;;;;;;;;;;;;;;;;5040073;28;20532;-66
2021/12/15 05:23:17;;;;;;;;;;;;;;;;;;5039104;28;19925;-66
2021/12/15 05:25:44;;;;;;;;;;;;;;;;;;5040637;28;19924;-65
2021/12/15 05:28:11;;;;;;;;;;;;;;;;;;5035908;28;19955;-65
2021/12/15 05:30:38;;;;;;;;;;;;;;;;;;5034521;28;19925;-65
2021/12/15 05:33:05;;;;;;;;;;;;;;;;;;5043250;28;19939;-65
2021/12/15 05:35:33;;;;;;;;;;;;;;;;;;5033548;28;19932;-65
2021/12/15 05:38:00;;;;;;;;;;;;;;;;;;5033683;28;19940;-65
2021/12/15 05:40:27;;;;;;;;;;;;;;;;;;5038035;28;19926;-66
2021/12/15 05:42:56;;;;;;;;;;;;;;;;;;5036567;28;19939;-66
2021/12/15 05:45:23;;;;;;;;;;;;;;;;;;5036803;28;19933;-66
2021/12/15 05:47:50;;;;;;;;;;;;;;;;;;5033811;28;19929;-65
2021/12/15 05:50:17;;;;;;;;;;;;;;;;;;5032355;28;19939;-65
2021/12/15 05:52:43;;;;;;;;;;;;;;;;;;5033972;28;19929;-65
2021/12/15 05:55:10;;;;;;;;;;;;;;;;;;5039294;28;19928;-65
2021/12/15 05:57:37;;;;;;;;;;;;;;;;;;5040904;28;20390;-65
2021/12/15 06:00:04;;;;;;;;;;;;;;;;;;5044533;28;19932;-66
2021/12/15 06:02:31;;;;;;;;;;;;;;;;;;5044789;28;19925;-64
2021/12/15 06:04:58;;;;;;;;;;;;;;;;;;5048971;28;20115;-65
2021/12/15 06:07:25;;;;;;;;;;;;;;;;;;5050068;28;19925;-65
2021/12/15 06:09:52;;;;;;;;;;;;;;;;;;5046305;28;19932;-65
2021/12/15 06:12:19;;;;;;;;;;;;;;;;;;5041105;28;19935;-66
2021/12/15 06:14:46;;;;;;;;;;;;;;;;;;5047254;28;19947;-66
2021/12/15 06:17:13;;;;;;;;;;;;;;;;;;5037073;28;19935;-65
2021/12/15 06:19:40;;;;;;;;;;;;;;;;;;5041899;28;19925;-65
2021/12/15 06:22:07;;;;;;;;;;;;;;;;;;5045709;28;19933;-65
2021/12/15 06:24:36;;;;;;;;;;;;;;;;;;5038694;28;19947;-65
2021/12/15 06:27:04;;;;;;;;;;;;;;;;;;5041161;28;19924;-65
2021/12/15 06:29:31;;;;;;;;;;;;;;;;;;5044493;28;19933;-65
2021/12/15 06:31:58;;;;;;;;;;;;;;;;;;5031730;28;19925;-65
2021/12/15 06:34:25;;;;;;;;;;;;;;;;;;5041522;28;20386;-66
2021/12/15 06:36:53;;;;;;;;;;;;;;;;;;5044020;28;20354;-65
2021/12/15 06:39:20;;;;;;;;;;;;;;;;;;5044149;28;20009;-66
2021/12/15 06:41:47;;;;;;;;;;;;;;;;;;5043346;28;19925;-66
2021/12/15 06:44:15;;;;;;;;;;;;;;;;;;5043058;28;20400;-65
2021/12/15 06:47:07;;;;;;;;;;;;;;;;;;5046932;28;19932;-65
2021/12/15 07:00:35;;;;;;;;;;;;;;;;;;5034372;28;19929;-65
2021/12/15 07:03:02;;;;;;;;;;;;;;;;;;5039701;28;19925;-65
2021/12/15 07:05:29;;;;;;;;;;;;;;;;;;5043179;28;19928;-65
2021/12/15 07:07:56;;;;;;;;;;;;;;;;;;5047285;28;19924;-67
2021/12/15 07:10:23;;;;;;;;;;;;;;;;;;5046000;28;19932;-65
2021/12/15 07:12:49;;;;;;;;;;;;;;;;;;5078059;22;19932;-65
2021/12/15 07:15:16;;;;;;;;;;;;;;;;;;5065441;28;20329;-65
2021/12/15 07:17:45;;;;;;;;;;;;;;;;;;5066163;28;19931;-65
2021/12/15 07:22:53;;;;;;;;;;;;;;;;;;5053488;28;20377;-65
2021/12/15 07:25:21;;;;;;;;;;;;;;;;;;5050842;28;19925;-65
2021/12/15 07:27:48;;;;;;;;;;;;;;;;;;5051641;28;19937;-65
2021/12/15 07:30:15;;;;;;;;;;;;;;;;;;5047142;28;19928;-65
2021/12/15 07:32:42;;;;;;;;;;;;;;;;;;5047847;28;20377;-66
2021/12/15 07:35:09;;;;;;;;;;;;;;;;;;5047565;28;20409;-66
2021/12/15 07:37:35;;;;;;;;;;;;;;;;;;5041148;28;19925;-66
2021/12/15 07:40:04;;;;;;;;;;;;;;;;;;5045892;28;20405;-65
2021/12/15 07:42:35;;;;;;;;;;;;;;;;;;5043992;28;19931;-65
2021/12/15 07:45:02;;;;;;;;;;;;;;;;;;5046760;28;19987;-65
2021/12/15 07:47:29;;;;;;;;;;;;;;;;;;5047652;28;19932;-66
2021/12/15 07:49:59;;;;;;;;;;;;;;;;;;5044240;28;19924;-64
2021/12/15 07:52:26;;;;;;;;;;;;;;;;;;5041953;28;20015;-65
2021/12/15 07:54:53;;;;;;;;;;;;;;;;;;5047908;28;19924;-65
2021/12/15 07:57:22;;;;;;;;;;;;;;;;;;5049117;28;19937;-65
2021/12/15 07:59:49;;;;;;;;;;;;;;;;;;5048950;28;20347;-65
2021/12/15 08:02:16;;;;;;;;;;;;;;;;;;5051397;28;19931;-65
2021/12/15 08:04:42;;;;;;;;;;;;;;;;;;5047610;28;20306;-66
2021/12/15 08:07:09;;;;;;;;;;;;;;;;;;5043574;28;19925;-66
2021/12/15 08:09:36;;;;;;;;;;;;;;;;;;5039837;28;19924;-64
2021/12/15 08:12:03;;;;;;;;;;;;;;;;;;5044818;28;20406;-66
2021/12/15 08:14:30;;;;;;;;;;;;;;;;;;5039790;28;19925;-66
2021/12/15 08:16:57;;;;;;;;;;;;;;;;;;5041687;28;20003;-64
2021/12/15 08:19:24;;;;;;;;;;;;;;;;;;5044377;28;19935;-65
2021/12/15 08:21:52;;;;;;;;;;;;;;;;;;5044980;28;19933;-65
2021/12/15 08:24:19;;;;;;;;;;;;;;;;;;5048123;28;19935;-66
2021/12/15 08:26:46;;;;;;;;;;;;;;;;;;5048420;28;19925;-66
2021/12/15 08:29:13;;;;;;;;;;;;;;;;;;5045387;28;19947;-65
2021/12/15 08:31:40;;;;;;;;;;;;;;;;;;5045745;28;19925;-66
2021/12/15 08:34:08;;;;;;;;;;;;;;;;;;5042197;28;19925;-66
2021/12/15 08:36:35;;;;;;;;;;;;;;;;;;5041052;28;19925;-66
2021/12/15 08:39:02;;;;;;;;;;;;;;;;;;5045810;28;19941;-65
2021/12/15 08:41:28;;;;;;;;;;;;;;;;;;5045337;28;19932;-65
2021/12/15 08:43:55;;;;;;;;;;;;;;;;;;5050045;28;20310;-65
2021/12/15 08:46:22;;;;;;;;;;;;;;;;;;5046509;28;19940;-64
2021/12/15 08:48:49;;;;;;;;;;;;;;;;;;5042350;28;19939;-66
2021/12/15 08:51:16;;;;;;;;;;;;;;;;;;5046200;28;20318;-66
2021/12/15 08:53:43;;;;;;;;;;;;;;;;;;5043097;28;19936;-66
2021/12/15 08:56:10;;;;;;;;;;;;;;;;;;5044107;28;19925;-65
2021/12/15 08:58:37;;;;;;;;;;;;;;;;;;5045401;28;19924;-65
2021/12/15 09:01:04;;;;;;;;;;;;;;;;;;5041013;28;20325;-65
2021/12/15 09:03:31;;;;;;;;;;;;;;;;;;5043931;28;19943;-66
2021/12/15 09:05:58;;;;;;;;;;;;;;;;;;5040082;28;19929;-65
2021/12/15 09:08:25;;;;;;;;;;;;;;;;;;5041435;28;19925;-65
2021/12/15 09:10:52;;;;;;;;;;;;;;;;;;5045626;28;20214;-65
2021/12/15 09:13:19;;;;;;;;;;;;;;;;;;5042525;28;19931;-65
2021/12/15 09:15:46;;;;;;;;;;;;;;;;;;5048880;28;19931;-65
2021/12/15 09:18:13;;;;;;;;;;;;;;;;;;5042787;28;20310;-65
2021/12/15 09:20:40;;;;;;;;;;;;;;;;;;5041411;28;19926;-65
2021/12/15 09:23:08;;;;;;;;;;;;;;;;;;5045994;28;19960;-65
2021/12/15 09:25:35;;;;;;;;;;;;;;;;;;5044236;28;19939;-65
2021/12/15 09:28:02;;;;;;;;;;;;;;;;;;5045917;28;19929;-65
2021/12/15 09:30:29;;;;;;;;;;;;;;;;;;5043472;28;19929;-66
2021/12/15 09:32:56;;;;;;;;;;;;;;;;;;5046001;28;20313;-64
2021/12/15 09:35:23;;;;;;;;;;;;;;;;;;5042374;28;19928;-65
2021/12/15 09:37:50;;;;;;;;;;;;;;;;;;5040178;28;19953;-65
2021/12/15 09:40:17;;;;;;;;;;;;;;;;;;5044166;28;19925;-64
2021/12/15 09:42:44;;;;;;;;;;;;;;;;;;5047684;28;19935;-64
2021/12/15 09:45:25;;;;;;;;;;;;;;;;;;5033352;28;21341;-66
2021/12/15 09:48:05;;;;;;;;;;;;;;;;;;5042737;28;20037;-65
2021/12/15 09:56:39;;;;;;;;;;;;;;;;;;4962770;28;19930;-65
2021/12/15 10:04:42;;;;;;;;;;;;;;;;;;5041349;28;19921;-65
2021/12/15 10:07:21;;;;;;;;;;;;;;;;;;5040941;28;19929;-65
2021/12/15 10:17:23;;;;;;;;;;;;;;;;;;5039536;28;20050;-65
2021/12/15 10:18:09;;;;;;;;;;;;;;;;;;5041476;28;19940;-65
2021/12/15 10:20:37;;;;;;;;;;;;;;;;;;5040552;28;19928;-65
2021/12/15 10:23:04;;;;;;;;;;;;;;;;;;5043215;28;19929;-65
2021/12/15 10:25:31;;;;;;;;;;;;;;;;;;5044487;28;19924;-65
2021/12/15 10:27:58;;;;;;;;;;;;;;;;;;5043742;28;19931;-66
2021/12/15 10:30:25;;;;;;;;;;;;;;;;;;5039375;28;19947;-66
2021/12/15 10:32:52;;;;;;;;;;;;;;;;;;5037779;28;19925;-66
2021/12/15 10:35:19;;;;;;;;;;;;;;;;;;5041673;28;19925;-66
2021/12/15 10:37:46;;;;;;;;;;;;;;;;;;5045527;28;19929;-66
2021/12/15 10:40:13;;;;;;;;;;;;;;;;;;5043859;28;19936;-65
2021/12/15 10:42:39;;;;;;;;;;;;;;;;;;5042153;28;19925;-65
2021/12/15 10:45:06;;;;;;;;;;;;;;;;;;5040456;28;19947;-65
2021/12/15 10:47:33;;;;;;;;;;;;;;;;;;5039094;28;20002;-67
2021/12/15 10:50:00;;;;;;;;;;;;;;;;;;5046260;28;19926;-65
2021/12/15 10:52:27;;;;;;;;;;;;;;;;;;5045151;28;19925;-66
2021/12/15 10:54:59;;;;;;;;;;;;;;;;;;5042036;28;20336;-66
2021/12/15 10:57:26;;;;;;;;;;;;;;;;;;5041916;28;19947;-66
2021/12/15 10:59:53;;;;;;;;;;;;;;;;;;5040306;28;20528;-66
2021/12/15 11:02:23;;;;;;;;;;;;;;;;;;5047893;28;19925;-66
2021/12/15 11:04:50;;;;;;;;;;;;;;;;;;5042245;28;20260;-66
2021/12/15 11:07:17;;;;;;;;;;;;;;;;;;5044312;28;19924;-66
2021/12/15 11:09:45;;;;;;;;;;;;;;;;;;5042647;28;20412;-66
2021/12/15 11:12:12;;;;;;;;;;;;;;;;;;5044060;28;20011;-66
2021/12/15 11:14:39;;;;;;;;;;;;;;;;;;5044625;28;19925;-65
2021/12/15 11:17:06;;;;;;;;;;;;;;;;;;5043712;28;19956;-66
2021/12/15 11:19:33;;;;;;;;;;;;;;;;;;5045058;28;19924;-64
2021/12/15 11:22:00;;;;;;;;;;;;;;;;;;5042224;28;19925;-65
2021/12/15 11:24:27;;;;;;;;;;;;;;;;;;5044062;28;19933;-65
2021/12/15 11:26:53;;;;;;;;;;;;;;;;;;5045684;28;19931;-65
2021/12/15 11:29:20;;;;;;;;;;;;;;;;;;5044460;28;19925;-65
2021/12/15 11:31:47;;;;;;;;;;;;;;;;;;5045986;28;20341;-64
2021/12/15 11:34:15;;;;;;;;;;;;;;;;;;5041389;28;20382;-65
2021/12/15 11:36:44;;;;;;;;;;;;;;;;;;5042663;28;19936;-64
2021/12/15 11:39:11;;;;;;;;;;;;;;;;;;5045400;28;19925;-64
2021/12/15 11:41:38;;;;;;;;;;;;;;;;;;5043655;28;19925;-65
2021/12/15 11:44:05;;;;;;;;;;;;;;;;;;5041891;28;19925;-65
2021/12/15 11:46:32;;;;;;;;;;;;;;;;;;5045089;28;19925;-65
2021/12/15 11:48:59;;;;;;;;;;;;;;;;;;5042548;28;19947;-66
2021/12/15 11:51:26;;;;;;;;;;;;;;;;;;5041561;28;20294;-66
2021/12/15 11:53:53;;;;;;;;;;;;;;;;;;5046758;28;19928;-66
2021/12/15 11:56:20;;;;;;;;;;;;;;;;;;5047502;28;20267;-66
2021/12/15 11:58:47;;;;;;;;;;;;;;;;;;5045655;28;19925;-65
2021/12/15 12:01:13;;;;;;;;;;;;;;;;;;5048135;28;19948;-66
2021/12/15 12:03:40;;;;;;;;;;;;;;;;;;5045782;28;19933;-64
2021/12/15 12:06:07;;;;;;;;;;;;;;;;;;5041247;28;19939;-65
2021/12/15 12:08:34;;;;;;;;;;;;;;;;;;5043778;28;20007;-65
2021/12/15 12:11:14;;;;;;;;;;;;;;;;;;5041338;28;19925;-66
2021/12/15 12:13:49;;;;;;;;;;;;;;;;;;5046087;28;19951;-66
2021/12/15 12:16:16;;;;;;;;;;;;;;;;;;5039691;28;20022;-66
2021/12/15 12:18:43;;;;;;;;;;;;;;;;;;5043172;28;19933;-66
2021/12/15 12:21:10;;;;;;;;;;;;;;;;;;5036511;28;19925;-66
2021/12/15 12:23:37;;;;;;;;;;;;;;;;;;5045195;28;20413;-66
2021/12/15 12:26:03;;;;;;;;;;;;;;;;;;5045988;28;19932;-66
2021/12/15 12:28:30;;;;;;;;;;;;;;;;;;5041482;28;19949;-65
2021/12/15 12:30:57;;;;;;;;;;;;;;;;;;5043423;28;19924;-65
2021/12/15 12:33:24;;;;;;;;;;;;;;;;;;5045667;28;19925;-65
2021/12/15 12:35:51;;;;;;;;;;;;;;;;;;5038839;28;19948;-65
2021/12/15 12:38:18;;;;;;;;;;;;;;;;;;5042507;28;19925;-65
2021/12/15 12:40:45;;;;;;;;;;;;;;;;;;5042636;28;19932;-65
2021/12/15 12:43:12;;;;;;;;;;;;;;;;;;5040462;28;19932;-65
2021/12/15 12:45:41;;;;;;;;;;;;;;;;;;5046350;28;20034;-65
2021/12/15 12:48:25;;;;;;;;;;;;;;;;;;5042245;28;20020;-65
2021/12/15 12:57:53;;;;;;;;;;;;;;;;;;5040142;28;20387;-66
2021/12/15 12:59:24;;;;;;;;;;;;;;;;;;5038834;28;19920;-66
2021/12/15 13:01:51;;;;;;;;;;;;;;;;;;5038673;28;19925;-66
2021/12/15 13:04:18;;;;;;;;;;;;;;;;;;5040864;28;19944;-66
2021/12/15 13:06:45;;;;;;;;;;;;;;;;;;5038299;28;19925;-66
2021/12/15 13:09:15;;;;;;;;;;;;;;;;;;5040132;28;19937;-66
2021/12/15 13:11:46;;;;;;;;;;;;;;;;;;5040474;28;20401;-66
2021/12/15 13:14:13;;;;;;;;;;;;;;;;;;5045654;28;20313;-66
2021/12/15 13:16:40;;;;;;;;;;;;;;;;;;5042848;28;19924;-66
2021/12/15 13:19:07;;;;;;;;;;;;;;;;;;5035323;28;19948;-67
2021/12/15 13:21:34;;;;;;;;;;;;;;;;;;5040819;28;19935;-66
2021/12/15 13:24:07;;;;;;;;;;;;;;;;;;5041191;28;21141;-66
2021/12/15 13:29:19;;;;;;;;;;;;;;;;;;5044427;28;19932;-66
2021/12/15 13:31:46;;;;;;;;;;;;;;;;;;5035888;28;20298;-66
2021/12/15 13:34:13;;;;;;;;;;;;;;;;;;5036712;28;19925;-67
2021/12/15 13:36:41;;;;;;;;;;;;;;;;;;5041326;28;20107;-65
2021/12/15 13:39:08;;;;;;;;;;;;;;;;;;5037425;28;19978;-65
2021/12/15 13:41:40;;;;;;;;;;;;;;;;;;5041929;28;19932;-66
2021/12/15 13:44:07;;;;;;;;;;;;;;;;;;5038733;28;19933;-65
2021/12/15 13:46:34;;;;;;;;;;;;;;;;;;5045882;28;20401;-66
2021/12/15 13:49:01;;;;;;;;;;;;;;;;;;5040211;28;19925;-65
2021/12/15 13:51:28;;;;;;;;;;;;;;;;;;5044328;28;19948;-66
2021/12/15 13:53:55;;;;;;;;;;;;;;;;;;5041412;28;19925;-66
2021/12/15 13:56:22;;;;;;;;;;;;;;;;;;5041145;28;20287;-66
2021/12/15 13:58:49;;;;;;;;;;;;;;;;;;5044082;28;19928;-66
2021/12/15 14:01:17;;;;;;;;;;;;;;;;;;5043788;28;19931;-66
2021/12/15 14:03:44;;;;;;;;;;;;;;;;;;5044561;28;19928;-66
2021/12/15 14:06:11;;;;;;;;;;;;;;;;;;5040615;28;19932;-66
2021/12/15 14:08:38;;;;;;;;;;;;;;;;;;5041064;28;19968;-66
2021/12/15 14:11:06;;;;;;;;;;;;;;;;;;5040962;28;19925;-66
2021/12/15 14:13:33;;;;;;;;;;;;;;;;;;5040341;28;19929;-66
2021/12/15 14:16:00;;;;;;;;;;;;;;;;;;5037935;28;20302;-66
2021/12/15 14:18:27;;;;;;;;;;;;;;;;;;5038433;28;19929;-66
2021/12/15 14:20:54;;;;;;;;;;;;;;;;;;5041376;28;19925;-66
2021/12/15 14:23:21;;;;;;;;;;;;;;;;;;5042430;28;19924;-65
2021/12/15 14:25:48;;;;;;;;;;;;;;;;;;5036707;28;19940;-66
2021/12/15 14:28:15;;;;;;;;;;;;;;;;;;5041601;28;20031;-66
2021/12/15 14:30:42;;;;;;;;;;;;;;;;;;5043270;28;19932;-66
2021/12/15 14:33:09;;;;;;;;;;;;;;;;;;5039745;28;19932;-66
2021/12/15 14:35:36;;;;;;;;;;;;;;;;;;5039327;28;19925;-66
2021/12/15 14:38:03;;;;;;;;;;;;;;;;;;5042156;28;20441;-66
2021/12/15 14:40:30;;;;;;;;;;;;;;;;;;5043840;28;19932;-66
2021/12/15 14:42:57;;;;;;;;;;;;;;;;;;5041169;28;19932;-66
2021/12/15 14:45:23;;;;;;;;;;;;;;;;;;5040812;28;19929;-66
2021/12/15 14:47:50;;;;;;;;;;;;;;;;;;5043649;28;19925;-66
2021/12/15 14:50:17;;;;;;;;;;;;;;;;;;5046115;28;19924;-66
2021/12/15 14:52:44;;;;;;;;;;;;;;;;;;5045744;28;20405;-66
2021/12/15 14:55:11;;;;;;;;;;;;;;;;;;5039090;28;20331;-64
2021/12/15 14:57:38;;;;;;;;;;;;;;;;;;5037691;28;19929;-66
2021/12/15 15:00:05;;;;;;;;;;;;;;;;;;5043473;28;19987;-66
2021/12/15 15:02:32;;;;;;;;;;;;;;;;;;5041223;28;19936;-66
2021/12/15 15:04:59;;;;;;;;;;;;;;;;;;5038175;28;19947;-66
2021/12/15 15:07:27;;;;;;;;;;;;;;;;;;5043868;28;19925;-67
2021/12/15 15:09:55;;;;;;;;;;;;;;;;;;5042909;28;20426;-65
2021/12/15 15:12:22;;;;;;;;;;;;;;;;;;5042996;28;19924;-65
2021/12/15 15:14:50;;;;;;;;;;;;;;;;;;5044066;28;20302;-65
2021/12/15 15:17:23;;;;;;;;;;;;;;;;;;5044255;28;19932;-66
2021/12/15 15:19:53;;;;;;;;;;;;;;;;;;5042813;28;20379;-63
2021/12/15 15:22:20;;;;;;;;;;;;;;;;;;5037145;28;19932;-66
2021/12/15 15:24:47;;;;;;;;;;;;;;;;;;5043025;28;20460;-66
2021/12/15 15:27:15;;;;;;;;;;;;;;;;;;5047809;28;19924;-66
2021/12/15 15:29:42;;;;;;;;;;;;;;;;;;5049836;28;19925;-66
2021/12/15 15:32:10;;;;;;;;;;;;;;;;;;5047083;28;19925;-65
2021/12/15 15:34:37;;;;;;;;;;;;;;;;;;5046307;28;19933;-65
2021/12/15 15:37:04;;;;;;;;;;;;;;;;;;5047043;28;19929;-65
2021/12/15 15:39:31;;;;;;;;;;;;;;;;;;5047823;28;20283;-65
2021/12/15 15:41:57;;;;;;;;;;;;;;;;;;5044162;28;19931;-66
2021/12/15 15:44:24;;;;;;;;;;;;;;;;;;5037748;28;19931;-66
2021/12/15 15:46:52;;;;;;;;;;;;;;;;;;5038211;28;19932;-66
2021/12/15 15:49:19;;;;;;;;;;;;;;;;;;5047444;28;19975;-65
2021/12/15 15:51:46;;;;;;;;;;;;;;;;;;5043359;28;19932;-66
2021/12/15 15:54:13;;;;;;;;;;;;;;;;;;5045907;28;19935;-66
2021/12/15 15:56:41;;;;;;;;;;;;;;;;;;5042908;28;19925;-65
2021/12/15 15:59:08;;;;;;;;;;;;;;;;;;5037366;28;19968;-65
2021/12/15 16:01:35;;;;;;;;;;;;;;;;;;5050568;28;19933;-65
2021/12/15 16:04:02;;;;;;;;;;;;;;;;;;5038889;28;19950;-67
2021/12/15 16:06:29;;;;;;;;;;;;;;;;;;5040283;28;19929;-66
2021/12/15 16:08:56;;;;;;;;;;;;;;;;;;5040236;28;19933;-66
2021/12/15 16:11:23;;;;;;;;;;;;;;;;;;5044628;28;20017;-68
2021/12/15 16:13:50;;;;;;;;;;;;;;;;;;5045096;28;19925;-66
2021/12/15 16:16:19;;;;;;;;;;;;;;;;;;5049643;28;20012;-66
2021/12/15 16:18:47;;;;;;;;;;;;;;;;;;5046172;28;20019;-66
2021/12/15 16:24:09;;;;;;;;;;;;;;;;;;5044522;28;20353;-66
2021/12/15 16:26:36;;;;;;;;;;;;;;;;;;5043840;28;19943;-66
2021/12/15 16:29:02;;;;;;;;;;;;;;;;;;5044656;28;19929;-66
2021/12/15 16:31:32;;;;;;;;;;;;;;;;;;5045095;28;19932;-66
2021/12/15 16:33:59;;;;;;;;;;;;;;;;;;5044399;28;19957;-66
2021/12/15 16:36:26;;;;;;;;;;;;;;;;;;5040110;28;19932;-66
2021/12/15 16:38:55;;;;;;;;;;;;;;;;;;5044489;28;19928;-66
2021/12/15 16:41:22;;;;;;;;;;;;;;;;;;5044898;28;19929;-66
2021/12/15 16:43:49;;;;;;;;;;;;;;;;;;5043919;28;19925;-65
2021/12/15 16:46:16;;;;;;;;;;;;;;;;;;5040763;28;20331;-65
2021/12/15 16:48:43;;;;;;;;;;;;;;;;;;5041526;28;19929;-67
2021/12/15 16:51:10;;;;;;;;;;;;;;;;;;5042748;28;19929;-69
2021/12/15 16:53:38;;;;;;;;;;;;;;;;;;5045909;28;19947;-66
2021/12/15 16:56:04;;;;;;;;;;;;;;;;;;5041989;28;19925;-64
2021/12/15 16:58:32;;;;;;;;;;;;;;;;;;5040616;28;19925;-65
2021/12/15 17:00:59;;;;;;;;;;;;;;;;;;5044183;28;20268;-65
2021/12/15 17:03:25;;;;;;;;;;;;;;;;;;5042207;28;19925;-65
2021/12/15 17:05:52;;;;;;;;;;;;;;;;;;5040546;28;20284;-65
2021/12/15 17:08:19;;;;;;;;;;;;;;;;;;5042524;28;20297;-66
2021/12/15 17:10:46;;;;;;;;;;;;;;;;;;5035832;28;20423;-65
2021/12/15 17:13:17;;;;;;;;;;;;;;;;;;5039067;28;19925;-65
2021/12/15 17:15:53;;;;;;;;;;;;;;;;;;5045777;28;19963;-65
2021/12/15 17:18:21;;;;;;;;;;;;;;;;;;5045468;28;19925;-64
2021/12/15 17:20:48;;;;;;;;;;;;;;;;;;5043736;28;20387;-65
2021/12/15 17:23:15;;;;;;;;;;;;;;;;;;5043494;28;19932;-65
2021/12/15 17:25:42;;;;;;;;;;;;;;;;;;5044355;28;19932;-65
2021/12/15 17:28:09;;;;;;;;;;;;;;;;;;5044593;28;19929;-65
2021/12/15 17:30:36;;;;;;;;;;;;;;;;;;5041670;28;20033;-66
2021/12/15 17:33:03;;;;;;;;;;;;;;;;;;5042770;28;19968;-66
2021/12/15 17:35:30;;;;;;;;;;;;;;;;;;5043678;28;19925;-66
2021/12/15 17:37:58;;;;;;;;;;;;;;;;;;5040106;28;19929;-64
2021/12/15 17:40:25;;;;;;;;;;;;;;;;;;5041007;28;19932;-65
2021/12/15 17:42:52;;;;;;;;;;;;;;;;;;5040456;28;19925;-64
2021/12/15 17:45:25;;;;;;;;;;;;;;;;;;5037248;28;20091;-65
2021/12/15 17:47:53;;;;;;;;;;;;;;;;;;5041372;28;20378;-64
2021/12/15 17:50:20;;;;;;;;;;;;;;;;;;5042729;28;19929;-66
2021/12/15 17:52:48;;;;;;;;;;;;;;;;;;5041488;28;19960;-64
2021/12/15 17:55:16;;;;;;;;;;;;;;;;;;5044416;28;19925;-65
2021/12/15 17:57:43;;;;;;;;;;;;;;;;;;5044017;28;19948;-64
2021/12/15 18:00:10;;;;;;;;;;;;;;;;;;5043751;28;19956;-64